Cypress Inn, TN (38452)

7:26 AM CDT en Marzo 29, 2015 (GMT -0500)
Rhodesville | | Change Station
CLOSE
Current Station
Estación meteorológica personal
Location: Florence, AL
Altura: 659 ft
Estaciones meteorológicas cercanas
Aviso en curso: Hard Freeze Warning

Alt 659 ft 34.89 °N, 87.87 °W | Updated 3 seconds ago

Despejado
Despejado
30.6 ° F
Sensación térmica 31 ° F
N
0.4
Viento Variable Viento desde NE
Gusts 2.5 mph

Hoy
Alta -- | Baja -- ° F
--% Posibilidad de precipitaciones
Ayer
Alta -- | Baja -- ° F
Precip. -- pul
6:42 AM 7:09 PM
Gibosa creciente, 71% visible
Presión 30.35 pul
Visibilidad -9999.0 Millas
Nubes Despejado
Vientos helados 31 ° F
Punto de rocío 19 ° F
Humedad 62%
Precipitaciones 0.00 pul
Espesor de la nieve No disponible.
UV 1.0 de una escala de 12
Polen 9.00 de una escala de 12
Calidad del aire No disponible.
Flu Activity No disponible.
METAR KMSL 291153Z AUTO 12005KT CLR M02/M06 A3035 RMK AO2 SLP278 T10171061 10000 21022 53010 $

More Conditions Fewer Conditions

Presión 30.35 pul
Visibilidad -9999.0 Millas
Nubes Despejado
Vientos helados 31 ° F
Punto de rocío 19 ° F
Humedad 62%
Precipitaciones 0.00 pul
Espesor de la nieve No disponible.
UV 1.0 de una escala de 12
Polen 9.00 de una escala de 12
Calidad del aire No disponible.
Flu Activity No disponible.
METAR KMSL 291153Z AUTO 12005KT CLR M02/M06 A3035 RMK AO2 SLP278 T10171061 10000 21022 53010 $

More Conditions Fewer Conditions

10-Day Weather Forecast

Almanac

Astronomía

Mar. 29, 2015 Salida Puesta
Hora real
Crepúsculo civil
Crepúsculo náutico
Crepúsculo astronómico
Luna
Horas de luz
Horas de luz
Tomorrow will be .
, % of the Moon is Illuminated

Extremos de hoy

Máximos del estado Bajos del estado

Community

WunderPhotos

Upload Photos

1,809,229 ¡fotos cargadas!

WunderBlogs® & News

Nearby

Calidad del aire

  Calidad del aire Índice AQ Contaminante
Not available.

Grosos de nieve

Estación Profundido Altura

Actividad de terremotos

Ciudad Distance Mag. Tiempo y dato
Magnitud mínima muestra es 2,5.

Temperaturas de aguas costeras

Lugar Temperatura

Stations

Estaciones meteorológicas cercanas

Ubicación de la estación Temp. Vientos helados Punto de rocío Humedad Viento Precip. Alt Actualizado Tipo
                   
Hard Freeze Warning
Statement as of 3:47 AM CDT en Marzo 29, 2015

... Hard freeze warning remains in effect until 10 am CDT this
morning...

* temperature... 20 degrees to around 28 degrees.

* Impacts... outdoor sensitive vegetation is likely being damaged
and killed.


21